Time;durP1;ratioP1;P1;durP2;ratioP2;P2;SDS_P1;SDS_P2;PMS_P1;PMS_P2;Temp;Humidity;BMP_temperature;BMP_pressure;BME280_temperature;BME280_humidity;BME280_pressure;Samples;Min_cycle;Max_cycle;Signal;HPM_P1;HPM_P2
2022/01/21 05:19:07;;;;;;;1.40;1.20;;;-0.90;99.90;;;;;;5818149;23;20223;-71
2022/01/21 05:21:34;;;;;;;1.60;1.45;;;-0.80;99.90;;;;;;4976018;28;20207;-70
2022/01/21 05:24:01;;;;;;;1.20;1.20;;;-0.80;99.90;;;;;;4976229;28;20236;-70
2022/01/21 05:26:35;;;;;;;1.38;1.38;;;-0.70;99.90;;;;;;4976263;28;20235;-70
2022/01/21 05:29:03;;;;;;;1.83;1.73;;;-0.60;99.90;;;;;;4976090;28;20372;-69
2022/01/21 05:31:30;;;;;;;2.10;2.00;;;-0.50;99.90;;;;;;4976120;28;20235;-69
2022/01/21 05:33:57;;;;;;;1.08;1.08;;;-0.40;99.90;;;;;;4976009;28;20227;-70
2022/01/21 05:36:26;;;;;;;1.38;1.35;;;-0.30;99.90;;;;;;4976206;28;20235;-71
2022/01/21 05:38:53;;;;;;;1.90;1.75;;;-0.30;99.90;;;;;;4976092;28;20219;-72
2022/01/21 05:41:22;;;;;;;2.22;1.33;;;-0.30;99.90;;;;;;4975868;28;20212;-71
2022/01/21 05:43:50;;;;;;;1.45;1.35;;;-0.30;99.90;;;;;;4975785;28;20204;-71
2022/01/21 05:46:34;;;;;;;1.77;1.67;;;-0.30;99.90;;;;;;4975754;28;20286;-71
2022/01/21 05:49:00;;;;;;;1.60;1.50;;;-0.30;99.90;;;;;;4975806;28;20317;-70
2022/01/21 05:51:29;;;;;;;1.40;1.40;;;-0.30;99.90;;;;;;4975490;28;20738;-72
2022/01/21 05:53:55;;;;;;;1.63;1.63;;;-0.40;99.90;;;;;;4976137;28;20310;-74
2022/01/21 05:56:24;;;;;;;2.08;1.98;;;-0.40;99.90;;;;;;4975704;28;20250;-74
2022/01/21 05:58:51;;;;;;;2.45;1.40;;;-0.40;99.90;;;;;;4975399;28;20307;-74
2022/01/21 06:01:18;;;;;;;1.73;1.63;;;-0.40;99.90;;;;;;4975677;28;20379;-74
2022/01/21 06:03:45;;;;;;;2.00;1.90;;;-0.40;99.90;;;;;;4975518;28;20621;-74
2022/01/21 06:06:12;;;;;;;2.80;1.98;;;-0.40;99.90;;;;;;4975141;28;20670;-74
2022/01/21 06:08:40;;;;;;;5.13;2.67;;;-0.40;99.90;;;;;;4975268;28;20298;-72
2022/01/21 06:11:07;;;;;;;7.60;4.15;;;-0.40;99.90;;;;;;4976232;28;20195;-71
2022/01/21 06:13:35;;;;;;;8.50;3.30;;;-0.50;99.90;;;;;;4975227;28;20298;-70
2022/01/21 06:16:02;;;;;;;4.57;3.10;;;-0.50;99.90;;;;;;4975381;28;20211;-70
2022/01/21 06:18:29;;;;;;;4.78;3.20;;;-0.50;99.90;;;;;;4975240;28;20210;-70
2022/01/21 06:20:55;;;;;;;2.88;2.38;;;-0.50;99.90;;;;;;4975007;28;20247;-70
2022/01/21 06:23:22;;;;;;;2.97;2.35;;;-0.50;99.90;;;;;;4974912;28;20290;-70
2022/01/21 06:25:51;;;;;;;2.65;2.47;;;-0.50;99.90;;;;;;4974922;28;20239;-70
2022/01/21 06:28:17;;;;;;;2.10;2.00;;;-0.50;99.90;;;;;;4975080;28;20235;-70
2022/01/21 06:30:44;;;;;;;2.35;2.15;;;-0.50;99.90;;;;;;4975004;28;20223;-69
2022/01/21 06:33:11;;;;;;;2.50;2.15;;;-0.40;99.90;;;;;;4975050;28;20246;-70
2022/01/21 06:35:38;;;;;;;2.28;2.05;;;-0.50;99.90;;;;;;4974974;28;20269;-70
2022/01/21 06:38:05;;;;;;;1.90;1.80;;;-0.50;99.90;;;;;;4974953;28;20249;-70
2022/01/21 06:40:32;;;;;;;2.22;2.13;;;-0.50;99.90;;;;;;4974646;28;20219;-70
2022/01/21 06:43:03;;;;;;;1.90;1.80;;;-0.50;99.90;;;;;;4974909;28;20298;-70
2022/01/21 06:45:30;;;;;;;1.90;1.80;;;-0.50;99.90;;;;;;4974742;28;20184;-70
2022/01/21 06:47:58;;;;;;;1.95;1.85;;;-0.50;99.90;;;;;;4974889;28;20299;-70
2022/01/21 06:50:25;;;;;;;1.50;1.50;;;-0.50;99.90;;;;;;4974405;28;20219;-70
2022/01/21 06:52:52;;;;;;;1.80;1.70;;;-0.50;99.90;;;;;;4973861;28;20294;-70
2022/01/21 06:55:18;;;;;;;1.73;1.63;;;-0.50;99.90;;;;;;4974174;28;20223;-70
2022/01/21 06:57:45;;;;;;;1.75;1.65;;;-0.50;99.90;;;;;;4974346;28;20640;-70
2022/01/21 07:00:18;;;;;;;1.77;1.67;;;-0.60;99.90;;;;;;4974616;28;20320;-70
2022/01/21 07:02:45;;;;;;;2.00;1.90;;;-0.60;99.90;;;;;;4974680;28;20635;-69
2022/01/21 07:05:12;;;;;;;1.58;1.55;;;-0.70;99.90;;;;;;4974655;28;20195;-70
2022/01/21 07:07:39;;;;;;;1.75;1.75;;;-0.80;99.90;;;;;;4974585;28;20622;-70
2022/01/21 07:10:10;;;;;;;1.75;1.65;;;-0.80;99.90;;;;;;4974522;28;20310;-69
2022/01/21 07:12:37;;;;;;;1.60;1.50;;;-0.80;99.90;;;;;;4974666;28;20213;-69
2022/01/21 07:15:05;;;;;;;1.50;1.50;;;-0.90;99.90;;;;;;4974293;28;20660;-69
2022/01/21 07:17:34;;;;;;;1.30;1.30;;;-0.90;99.90;;;;;;4974357;28;20562;-69
2022/01/21 07:20:01;;;;;;;1.48;1.48;;;-0.90;99.90;;;;;;4974328;28;20230;-69
2022/01/21 07:22:28;;;;;;;1.60;1.58;;;-0.90;99.90;;;;;;4974598;28;20279;-69
2022/01/21 07:24:55;;;;;;;1.60;1.60;;;-0.90;99.90;;;;;;4974614;28;20288;-69
2022/01/21 07:27:22;;;;;;;1.83;1.70;;;-0.90;99.90;;;;;;4974507;28;20295;-68
2022/01/21 07:29:49;;;;;;;2.92;1.83;;;-1.00;99.90;;;;;;4974395;28;20219;-69
2022/01/21 07:32:16;;;;;;;1.90;1.80;;;-1.00;99.90;;;;;;4974644;28;20634;-69
2022/01/21 07:34:44;;;;;;;1.67;1.58;;;-1.00;99.90;;;;;;4974451;28;20306;-68
2022/01/21 07:37:11;;;;;;;1.67;1.67;;;-1.00;99.90;;;;;;4975085;28;20302;-68
2022/01/21 07:39:38;;;;;;;1.60;1.60;;;-1.00;99.90;;;;;;4974207;28;20223;-68
2022/01/21 07:42:05;;;;;;;1.50;1.50;;;-0.90;99.90;;;;;;4974464;28;20289;-68
2022/01/21 07:44:32;;;;;;;1.30;1.30;;;-0.90;99.90;;;;;;4974411;28;20286;-68
2022/01/21 07:46:59;;;;;;;1.40;1.40;;;-0.80;99.90;;;;;;4974384;28;20204;-69
2022/01/21 07:49:26;;;;;;;1.17;1.10;;;-0.70;99.90;;;;;;4974257;28;20227;-70
2022/01/21 07:51:55;;;;;;;1.60;1.60;;;-0.70;99.90;;;;;;4973914;28;20298;-69
2022/01/21 07:54:21;;;;;;;1.35;1.33;;;-0.30;99.90;;;;;;4974057;28;20227;-69
2022/01/21 07:56:48;;;;;;;1.65;1.55;;;0.90;99.90;;;;;;4974211;28;20210;-69
2022/01/21 07:59:17;;;;;;;1.35;1.33;;;2.40;99.90;;;;;;4974850;28;20314;-70
2022/01/21 08:01:44;;;;;;;1.40;1.40;;;3.70;99.90;;;;;;4973886;28;20758;-70
2022/01/21 08:04:11;;;;;;;2.15;1.30;;;4.80;99.90;;;;;;4974171;28;20306;-70
2022/01/21 08:06:38;;;;;;;1.30;1.20;;;5.60;99.90;;;;;;4977632;28;20203;-70
2022/01/21 08:09:07;;;;;;;1.92;1.83;;;5.90;99.90;;;;;;4977769;28;20314;-70
2022/01/21 08:11:34;;;;;;;1.10;1.10;;;6.30;99.90;;;;;;4977593;28;20203;-70
2022/01/21 08:14:01;;;;;;;2.05;1.50;;;7.20;99.90;;;;;;4977586;28;20207;-70
2022/01/21 08:16:28;;;;;;;1.42;1.38;;;8.00;93.20;;;;;;4977137;28;20534;-69
2022/01/21 08:18:56;;;;;;;3.50;1.98;;;8.50;75.20;;;;;;4977343;28;20219;-70
2022/01/21 08:21:23;;;;;;;3.08;1.73;;;8.60;58.80;;;;;;4977158;28;20219;-71
2022/01/21 08:23:52;;;;;;;2.60;2.03;;;8.50;50.30;;;;;;4977460;28;20226;-71
2022/01/21 08:26:23;;;;;;;4.78;1.98;;;8.00;48.20;;;;;;4977458;28;20286;-70
2022/01/21 08:28:50;;;;;;;2.38;2.03;;;7.60;48.30;;;;;;4977392;28;20310;-70
2022/01/21 08:31:17;;;;;;;2.67;1.90;;;7.00;50.80;;;;;;4976945;28;20294;-71
2022/01/21 08:33:45;;;;;;;2.08;1.98;;;6.50;54.30;;;;;;4977327;28;20285;-70
2022/01/21 08:36:12;;;;;;;2.38;1.98;;;5.90;56.50;;;;;;4977187;28;20310;-70
2022/01/21 08:38:40;;;;;;;2.90;1.55;;;5.40;61.30;;;;;;4977143;28;20290;-70
2022/01/21 08:41:08;;;;;;;1.85;1.70;;;5.00;67.00;;;;;;4977320;28;20217;-71
2022/01/21 08:43:36;;;;;;;2.17;2.00;;;4.70;74.80;;;;;;4977157;28;20294;-70
2022/01/21 08:46:04;;;;;;;2.30;2.08;;;4.50;75.80;;;;;;4977137;28;20286;-70
2022/01/21 08:48:30;;;;;;;2.15;1.95;;;4.40;77.00;;;;;;4976979;28;20298;-71
2022/01/21 08:50:59;;;;;;;2.10;2.00;;;4.20;82.10;;;;;;4977004;28;20294;-71
2022/01/21 08:56:12;;;;;;;1.92;1.80;;;4.10;90.10;;;;;;4976421;28;20667;-69
2022/01/21 08:58:42;;;;;;;2.00;1.85;;;4.00;83.90;;;;;;4976676;28;20262;-70
2022/01/21 09:01:10;;;;;;;4.03;1.83;;;3.90;81.30;;;;;;4976695;28;20298;-71
2022/01/21 09:03:38;;;;;;;1.73;1.63;;;3.80;82.90;;;;;;4977128;28;20200;-70
2022/01/21 09:06:05;;;;;;;1.88;1.77;;;3.80;81.00;;;;;;4976572;28;20199;-70
2022/01/21 09:08:32;;;;;;;2.10;1.90;;;3.70;81.30;;;;;;4976471;28;20210;-71
2022/01/21 09:11:01;;;;;;;1.92;1.80;;;3.70;81.40;;;;;;4976595;28;20290;-70
2022/01/21 09:13:30;;;;;;;1.60;1.50;;;3.70;80.50;;;;;;4976269;28;20747;-70
2022/01/21 09:16:01;;;;;;;1.85;1.60;;;3.70;84.20;;;;;;4975945;28;20238;-70
2022/01/21 09:18:34;;;;;;;1.30;1.20;;;3.80;78.10;;;;;;4976374;28;20194;-71
2022/01/21 09:21:01;;;;;;;1.20;1.20;;;3.80;75.90;;;;;;4976150;28;20211;-70
2022/01/21 09:23:28;;;;;;;1.55;1.45;;;3.90;73.80;;;;;;4975974;28;20294;-70
2022/01/21 09:25:55;;;;;;;2.33;1.40;;;3.90;71.10;;;;;;4976080;28;20205;-70
2022/01/21 09:28:23;;;;;;;4.43;1.92;;;3.80;66.40;;;;;;4976273;28;20295;-71
2022/01/21 09:30:50;;;;;;;1.92;1.60;;;3.60;69.30;;;;;;4976084;28;20223;-70
2022/01/21 09:33:18;;;;;;;1.67;1.50;;;3.40;74.70;;;;;;4976155;28;20239;-69
2022/01/21 09:35:45;;;;;;;2.33;1.70;;;3.40;75.40;;;;;;4975933;28;20227;-70
2022/01/21 09:38:12;;;;;;;2.20;2.00;;;3.30;74.70;;;;;;4976166;28;20296;-70
2022/01/21 09:40:45;;;;;;;2.38;1.42;;;3.30;71.40;;;;;;4975660;28;20227;-70
2022/01/21 09:43:12;;;;;;;1.38;1.25;;;3.30;70.80;;;;;;4975975;28;20192;-70
2022/01/21 09:45:40;;;;;;;0.98;0.98;;;3.20;66.50;;;;;;4976066;28;20302;-71
2022/01/21 09:48:09;;;;;;;2.13;1.38;;;3.20;67.30;;;;;;4975598;28;20754;-71
2022/01/21 09:50:38;;;;;;;1.45;1.35;;;3.10;68.60;;;;;;4975694;28;20318;-70
2022/01/21 09:53:07;;;;;;;1.98;1.80;;;3.20;67.70;;;;;;4975495;28;20597;-70
2022/01/21 09:55:34;;;;;;;1.58;1.25;;;3.20;67.70;;;;;;4975652;28;20331;-70
2022/01/21 09:58:02;;;;;;;1.85;1.30;;;3.30;68.60;;;;;;4975775;28;20287;-71
2022/01/21 10:00:29;;;;;;;2.35;1.55;;;3.30;64.40;;;;;;4975298;28;20729;-70
2022/01/21 10:02:57;;;;;;;1.85;1.70;;;3.20;67.80;;;;;;4975773;28;20294;-71
2022/01/21 10:05:24;;;;;;;3.60;1.80;;;3.10;67.50;;;;;;4975845;28;20270;-71
2022/01/21 10:07:52;;;;;;;2.72;2.00;;;2.80;65.90;;;;;;4975637;28;20235;-70
2022/01/21 10:10:19;;;;;;;3.88;1.63;;;2.60;71.20;;;;;;4975401;28;20306;-70
2022/01/21 10:12:48;;;;;;;3.13;1.60;;;2.40;73.70;;;;;;4975184;28;20191;-71
2022/01/21 10:15:16;;;;;;;3.72;1.58;;;2.40;81.00;;;;;;4975167;28;20219;-71
2022/01/21 10:18:00;;;;;;;1.85;1.70;;;2.40;90.80;;;;;;4974989;28;20211;-71
2022/01/21 10:20:27;;;;;;;2.47;1.83;;;2.50;98.40;;;;;;4975118;28;20325;-71
2022/01/21 10:22:59;;;;;;;2.63;1.42;;;2.60;98.70;;;;;;4975277;28;20298;-72
2022/01/21 10:25:27;;;;;;;1.90;1.58;;;2.60;97.00;;;;;;4976066;28;20293;-72
2022/01/21 10:28:09;;;;;;;4.18;1.48;;;2.60;95.80;;;;;;4974540;28;20279;-71
2022/01/21 10:30:36;;;;;;;2.90;1.45;;;2.60;97.60;;;;;;4975345;28;20310;-71
2022/01/21 10:33:19;;;;;;;2.45;1.75;;;2.70;98.40;;;;;;4975259;28;20203;-71
2022/01/21 10:35:48;;;;;;;2.03;1.73;;;2.80;92.00;;;;;;4974645;28;20572;-71
2022/01/21 10:38:18;;;;;;;2.80;2.00;;;2.80;87.90;;;;;;4975009;28;20219;-71
2022/01/21 10:40:45;;;;;;;2.40;1.33;;;2.80;92.10;;;;;;4974891;28;20231;-71
2022/01/21 10:43:13;;;;;;;4.22;1.50;;;2.80;81.50;;;;;;4974916;28;20636;-71
2022/01/21 10:45:54;;;;;;;1.30;1.20;;;2.80;81.00;;;;;;4974575;28;20206;-71
2022/01/21 10:48:22;;;;;;;1.50;1.40;;;2.80;84.60;;;;;;4974682;28;20733;-71
2022/01/21 10:51:17;;;;;;;3.33;2.17;;;2.90;85.40;;;;;;4974538;28;20306;-71
2022/01/21 10:53:45;;;;;;;1.50;1.38;;;2.90;70.10;;;;;;4974928;28;20208;-71
2022/01/21 10:56:15;;;;;;;2.88;1.42;;;2.80;75.10;;;;;;4974547;28;20223;-70
2022/01/21 10:58:44;;;;;;;2.13;1.40;;;2.80;75.60;;;;;;4974915;28;20188;-71
2022/01/21 11:01:17;;;;;;;1.30;1.20;;;2.80;76.80;;;;;;4974694;28;20572;-70
2022/01/21 11:04:02;;;;;;;1.77;1.30;;;2.90;73.80;;;;;;4974713;28;20192;-70
2022/01/21 11:06:37;;;;;;;1.85;1.30;;;2.90;69.80;;;;;;4975019;28;20194;-70
2022/01/21 11:09:20;;;;;;;1.90;1.60;;;2.80;65.80;;;;;;4974827;28;20226;-70
2022/01/21 11:11:48;;;;;;;2.33;1.75;;;2.70;68.90;;;;;;4974281;28;20294;-70
2022/01/21 11:14:16;;;;;;;2.20;1.42;;;2.70;74.70;;;;;;4974551;28;20299;-70
2022/01/21 11:16:46;;;;;;;1.83;1.73;;;2.70;71.10;;;;;;4974466;28;20262;-69
2022/01/21 11:19:16;;;;;;;2.65;1.70;;;2.60;73.90;;;;;;4974446;28;20227;-70
2022/01/21 11:21:51;;;;;;;3.00;1.48;;;2.60;77.30;;;;;;4975073;28;20226;-70
2022/01/21 11:24:21;;;;;;;6.53;1.48;;;2.60;77.40;;;;;;4974458;28;20234;-69
2022/01/21 11:27:13;;;;;;;1.42;1.10;;;2.50;77.80;;;;;;4979078;28;20183;-69
2022/01/21 11:29:42;;;;;;;1.42;1.27;;;2.50;77.50;;;;;;4970977;28;20223;-69
2022/01/21 11:32:10;;;;;;;0.90;0.90;;;2.50;73.80;;;;;;4978891;28;20242;-69
2022/01/21 11:34:37;;;;;;;1.38;1.27;;;2.50;73.30;;;;;;4978614;28;20292;-68
2022/01/21 11:37:06;;;;;;;1.00;1.00;;;2.50;70.00;;;;;;4979260;28;20224;-69
2022/01/21 11:39:37;;;;;;;2.92;1.40;;;2.40;71.90;;;;;;4980603;28;20293;-70
2022/01/21 11:42:06;;;;;;;1.67;1.30;;;2.30;73.50;;;;;;4984177;28;20226;-71
2022/01/21 11:44:37;;;;;;;1.50;1.30;;;2.30;78.00;;;;;;4982450;28;20200;-71
2022/01/21 11:47:29;;;;;;;1.30;1.30;;;2.30;78.10;;;;;;4982868;28;20243;-71
2022/01/21 11:49:58;;;;;;;1.65;1.23;;;2.30;77.00;;;;;;4982660;28;20694;-71
2022/01/21 11:52:25;;;;;;;2.03;1.25;;;2.30;80.50;;;;;;4981868;28;20247;-71
2022/01/21 11:54:54;;;;;;;1.30;1.25;;;2.40;78.30;;;;;;4981205;28;20204;-70
2022/01/21 11:57:30;;;;;;;1.42;1.40;;;2.40;72.60;;;;;;4977752;28;20215;-71
2022/01/21 12:00:06;;;;;;;1.95;1.20;;;2.40;73.10;;;;;;4977796;28;20270;-70
2022/01/21 12:02:35;;;;;;;1.85;1.08;;;2.40;72.50;;;;;;4978056;28;20198;-70
2022/01/21 12:05:03;;;;;;;2.38;1.00;;;2.40;71.90;;;;;;4977774;28;20294;-70
2022/01/21 12:07:59;;;;;;;2.58;1.40;;;2.50;68.20;;;;;;4977666;28;20263;-70
2022/01/21 12:10:36;;;;;;;1.50;1.20;;;2.40;66.10;;;;;;4977986;28;20231;-70
2022/01/21 12:13:11;;;;;;;0.95;0.95;;;2.30;67.50;;;;;;4977998;28;20270;-70
2022/01/21 12:15:57;;;;;;;1.20;1.10;;;2.30;67.00;;;;;;4978053;28;20535;-70
2022/01/21 12:18:39;;;;;;;1.17;1.08;;;2.20;67.10;;;;;;4978026;28;20203;-70
2022/01/21 12:21:27;;;;;;;1.40;1.30;;;2.20;68.50;;;;;;4979355;28;20223;-69
2022/01/21 12:23:55;;;;;;;1.40;1.30;;;2.20;68.30;;;;;;4978061;28;20263;-70
2022/01/21 12:26:25;;;;;;;1.55;1.45;;;2.20;69.10;;;;;;4980111;28;20258;-70
2022/01/21 12:29:24;;;;;;;1.25;1.17;;;2.20;69.30;;;;;;4980216;28;20230;-71
2022/01/21 12:32:02;;;;;;;1.30;1.20;;;2.10;67.80;;;;;;4980955;28;20203;-70
2022/01/21 12:34:50;;;;;;;0.90;0.90;;;2.10;68.70;;;;;;4982282;28;20191;-71
2022/01/21 12:37:23;;;;;;;0.90;0.90;;;2.20;70.00;;;;;;4981104;28;20251;-71
2022/01/21 12:39:51;;;;;;;1.08;1.00;;;2.20;68.70;;;;;;4980601;28;20311;-71
2022/01/21 12:42:28;;;;;;;0.80;0.80;;;2.30;70.10;;;;;;4981249;28;20303;-71
2022/01/21 12:44:57;;;;;;;1.00;1.00;;;2.30;70.90;;;;;;4980744;28;20275;-71
2022/01/21 12:47:32;;;;;;;1.75;0.90;;;2.30;68.80;;;;;;4981149;28;20203;-70
2022/01/21 12:50:09;;;;;;;1.08;1.00;;;2.40;67.10;;;;;;4978840;28;20571;-70
2022/01/21 12:52:49;;;;;;;0.80;0.80;;;2.40;62.40;;;;;;4978824;28;20223;-70
2022/01/21 12:58:14;;;;;;;0.70;0.70;;;2.40;61.30;;;;;;4976946;28;20202;-70
2022/01/21 13:00:42;;;;;;;0.90;0.90;;;2.50;61.60;;;;;;4976894;28;20314;-70
2022/01/21 13:03:17;;;;;;;0.93;0.90;;;2.60;64.00;;;;;;4976829;28;20291;-70
2022/01/21 13:05:50;;;;;;;0.77;0.77;;;2.70;63.20;;;;;;4976527;28;20657;-72
2022/01/21 13:08:35;;;;;;;1.75;0.85;;;2.90;59.90;;;;;;4976475;28;20690;-71
2022/01/21 13:11:12;;;;;;;0.73;0.73;;;2.90;59.10;;;;;;4976366;28;20234;-71
2022/01/21 13:13:50;;;;;;;0.98;0.70;;;3.00;58.90;;;;;;4976572;28;20274;-71
2022/01/21 13:16:27;;;;;;;1.60;0.90;;;2.90;56.60;;;;;;4976507;28;20203;-71
2022/01/21 13:19:02;;;;;;;1.35;0.85;;;2.90;56.40;;;;;;4976067;28;20724;-71
2022/01/21 13:21:29;;;;;;;1.00;0.90;;;2.80;57.40;;;;;;4976105;28;20225;-71
2022/01/21 13:23:58;;;;;;;0.70;0.70;;;2.70;57.60;;;;;;4976321;28;20199;-71
2022/01/21 13:26:28;;;;;;;2.17;1.33;;;2.60;58.40;;;;;;4976383;28;20207;-71
2022/01/21 13:29:07;;;;;;;1.65;1.40;;;2.40;59.80;;;;;;4976224;28;20611;-70
2022/01/21 13:31:36;;;;;;;2.28;1.17;;;2.30;61.90;;;;;;4976683;28;20373;-70
2022/01/21 13:34:08;;;;;;;1.52;1.20;;;2.20;62.20;;;;;;4976201;28;20235;-70
2022/01/21 13:36:44;;;;;;;1.88;1.70;;;2.20;57.20;;;;;;4976050;28;20223;-70
2022/01/21 13:39:14;;;;;;;1.75;1.00;;;2.00;58.00;;;;;;4976098;28;20267;-70
2022/01/21 13:41:51;;;;;;;1.20;1.20;;;2.10;57.30;;;;;;4976099;28;20208;-69
2022/01/21 13:44:28;;;;;;;1.02;1.02;;;2.10;59.00;;;;;;4976379;28;20609;-69
2022/01/21 13:46:57;;;;;;;1.08;0.95;;;2.20;60.70;;;;;;4973938;28;20206;-69
2022/01/21 13:49:25;;;;;;;1.00;1.00;;;2.30;59.30;;;;;;4973471;28;20726;-69
2022/01/21 13:51:56;;;;;;;0.90;0.90;;;2.40;57.20;;;;;;4974097;28;20738;-70
2022/01/21 13:54:35;;;;;;;2.28;1.20;;;2.40;57.60;;;;;;4975975;28;20210;-70
2022/01/21 13:57:03;;;;;;;1.10;1.10;;;2.40;57.40;;;;;;4976309;28;20207;-70
2022/01/21 13:59:33;;;;;;;1.15;1.05;;;2.40;57.10;;;;;;4975376;28;20790;-70
2022/01/21 14:02:06;;;;;;;1.20;1.10;;;2.30;57.70;;;;;;4975060;28;20231;-70
2022/01/21 14:04:33;;;;;;;1.50;1.15;;;2.30;57.80;;;;;;4975609;28;20203;-70
2022/01/21 14:07:00;;;;;;;1.25;0.90;;;2.20;58.70;;;;;;4976004;28;20199;-70
2022/01/21 14:09:27;;;;;;;3.30;1.40;;;2.20;59.10;;;;;;4975354;28;20227;-70
2022/01/21 14:11:54;;;;;;;10.43;3.50;;;2.10;59.70;;;;;;4975729;28;20283;-69
2022/01/21 14:14:23;;;;;;;3.03;1.95;;;2.10;60.60;;;;;;4975713;28;20204;-71
2022/01/21 14:16:57;;;;;;;1.88;1.60;;;2.00;61.00;;;;;;4978444;28;20563;-69
2022/01/21 14:19:26;;;;;;;2.42;2.03;;;2.00;62.80;;;;;;4979048;28;20219;-70
2022/01/21 14:22:07;;;;;;;2.30;1.70;;;2.00;63.40;;;;;;4978228;28;20614;-70
2022/01/21 14:24:42;;;;;;;2.15;1.95;;;2.00;65.50;;;;;;4978083;28;20196;-68
2022/01/21 14:27:19;;;;;;;1.90;1.60;;;2.00;65.20;;;;;;4979323;28;20200;-70
2022/01/21 14:29:53;;;;;;;1.52;1.42;;;2.00;69.00;;;;;;4977745;28;20254;-69
2022/01/21 14:32:27;;;;;;;1.60;1.50;;;2.00;63.50;;;;;;4978965;28;20270;-70
2022/01/21 14:35:10;;;;;;;3.75;2.20;;;1.90;63.70;;;;;;4979152;28;20215;-71
2022/01/21 14:37:39;;;;;;;4.40;2.60;;;1.90;64.60;;;;;;4978726;28;20238;-70
2022/01/21 14:40:08;;;;;;;3.42;2.30;;;1.80;65.00;;;;;;4978200;28;20246;-71
2022/01/21 14:42:36;;;;;;;2.35;1.65;;;1.80;64.40;;;;;;4978577;28;20298;-71
2022/01/21 14:45:16;;;;;;;4.45;2.47;;;1.80;65.10;;;;;;4979198;28;20203;-71
2022/01/21 14:47:46;;;;;;;5.28;2.22;;;1.90;65.00;;;;;;4978492;28;20207;-71
2022/01/21 14:50:16;;;;;;;2.03;1.85;;;1.90;64.80;;;;;;4979270;28;20233;-72
2022/01/21 14:52:46;;;;;;;1.60;1.50;;;1.90;66.50;;;;;;4979338;28;20242;-72
2022/01/21 14:55:23;;;;;;;2.00;1.90;;;1.80;65.20;;;;;;4979023;28;20191;-72
2022/01/21 14:57:53;;;;;;;2.75;2.10;;;1.80;66.80;;;;;;4978760;28;20206;-72
2022/01/21 15:00:32;;;;;;;1.90;1.80;;;1.70;66.10;;;;;;4978445;28;20259;-72
2022/01/21 15:03:11;;;;;;;1.80;1.70;;;1.60;67.90;;;;;;4978728;28;20614;-71
2022/01/21 15:05:40;;;;;;;1.98;1.88;;;1.60;69.40;;;;;;4978167;28;20199;-71
2022/01/21 15:08:09;;;;;;;1.80;1.70;;;1.50;69.40;;;;;;4978639;28;20207;-72
2022/01/21 15:10:41;;;;;;;2.10;1.35;;;1.50;71.40;;;;;;4975606;28;20231;-71
2022/01/21 15:16:12;;;;;;;1.30;1.30;;;1.50;72.80;;;;;;4978881;28;20585;-71
2022/01/21 15:18:41;;;;;;;1.88;1.77;;;1.50;72.90;;;;;;4978592;28;20223;-70
2022/01/21 15:21:18;;;;;;;2.00;1.35;;;1.40;77.60;;;;;;4978476;28;20298;-70
2022/01/21 15:23:49;;;;;;;1.20;1.20;;;1.40;77.60;;;;;;4978774;28;20191;-70
2022/01/21 15:26:18;;;;;;;1.20;1.20;;;1.40;77.60;;;;;;4978713;28;20190;-71
2022/01/21 15:28:47;;;;;;;1.05;1.05;;;1.40;78.70;;;;;;4978186;28;20209;-71
2022/01/21 15:31:14;;;;;;;1.45;1.00;;;1.40;79.20;;;;;;4978689;28;20207;-70
2022/01/21 15:33:42;;;;;;;0.93;0.85;;;1.40;82.00;;;;;;4978546;28;20700;-69
2022/01/21 15:36:09;;;;;;;0.93;0.80;;;1.30;84.20;;;;;;4977836;28;20203;-70
2022/01/21 15:38:38;;;;;;;1.10;1.10;;;1.30;84.70;;;;;;4977790;28;20233;-70
2022/01/21 15:41:05;;;;;;;0.90;0.90;;;1.30;87.30;;;;;;4977664;28;20199;-70
2022/01/21 15:43:32;;;;;;;0.90;0.90;;;1.30;89.20;;;;;;4977613;28;20231;-71
2022/01/21 15:45:59;;;;;;;0.90;0.90;;;1.20;90.00;;;;;;4977874;28;20754;-70
2022/01/21 15:48:28;;;;;;;1.17;1.17;;;1.20;91.50;;;;;;4978052;28;20245;-71
2022/01/21 15:50:57;;;;;;;0.80;0.80;;;1.10;91.10;;;;;;4978096;28;20207;-70
2022/01/21 15:53:23;;;;;;;0.90;0.90;;;1.10;91.70;;;;;;4977935;28;20278;-70
2022/01/21 15:55:51;;;;;;;0.80;0.80;;;1.10;91.30;;;;;;4978018;28;20290;-68
2022/01/21 15:58:18;;;;;;;0.77;0.77;;;1.10;90.00;;;;;;4977875;28;20215;-70
2022/01/21 16:00:47;;;;;;;0.90;0.90;;;1.10;90.60;;;;;;4977862;28;20644;-70
2022/01/21 16:03:14;;;;;;;0.88;0.88;;;1.00;91.70;;;;;;4977718;28;20549;-70
2022/01/21 16:05:42;;;;;;;0.80;0.80;;;1.00;93.80;;;;;;4977757;28;20210;-70
2022/01/21 16:08:11;;;;;;;1.00;0.98;;;0.90;95.20;;;;;;4977855;28;20202;-70
2022/01/21 16:10:39;;;;;;;0.90;0.90;;;0.90;96.20;;;;;;4977577;28;20318;-69
2022/01/21 16:13:08;;;;;;;0.80;0.80;;;0.90;96.30;;;;;;5000599;23;20274;-68
2022/01/21 16:15:37;;;;;;;0.70;0.70;;;0.80;98.00;;;;;;4978696;28;20207;-69
2022/01/21 16:18:04;;;;;;;1.02;0.90;;;0.80;98.40;;;;;;4961154;28;20227;-68
2022/01/21 16:20:34;;;;;;;0.80;0.80;;;0.80;99.90;;;;;;4978210;28;20608;-69
2022/01/21 16:23:07;;;;;;;0.57;0.57;;;0.80;99.90;;;;;;4960551;28;20278;-68
2022/01/21 16:25:37;;;;;;;0.60;0.60;;;0.80;99.90;;;;;;4976166;28;20191;-68
2022/01/21 16:28:05;;;;;;;0.90;0.90;;;0.80;99.90;;;;;;4976926;28;20199;-69
2022/01/21 16:30:34;;;;;;;0.73;0.73;;;0.80;99.90;;;;;;4959797;28;20210;-68
2022/01/21 16:33:02;;;;;;;1.08;1.08;;;0.80;99.90;;;;;;4959844;28;20231;-69
2022/01/21 16:35:30;;;;;;;0.60;0.60;;;0.80;99.90;;;;;;4977456;28;20258;-69
2022/01/21 16:38:01;;;;;;;0.90;0.90;;;0.80;99.90;;;;;;4977289;28;20239;-69
2022/01/21 16:40:31;;;;;;;1.00;1.00;;;0.90;99.90;;;;;;4977121;28;20234;-68
2022/01/21 16:43:08;;;;;;;0.93;0.93;;;0.90;99.90;;;;;;4977252;28;20188;-68
2022/01/21 16:45:39;;;;;;;0.80;0.80;;;0.80;99.90;;;;;;4977352;28;20194;-68
2022/01/21 16:48:08;;;;;;;1.10;1.00;;;0.80;99.90;;;;;;4960294;28;20203;-68
2022/01/21 16:50:39;;;;;;;0.80;0.80;;;0.90;99.90;;;;;;4977143;28;20294;-67
2022/01/21 16:53:07;;;;;;;0.90;0.90;;;0.90;99.90;;;;;;4976160;28;20259;-68
2022/01/21 16:55:35;;;;;;;0.60;0.60;;;0.90;99.90;;;;;;4976428;28;20203;-68
2022/01/21 16:58:09;;;;;;;0.80;0.80;;;0.90;99.90;;;;;;4977086;28;20243;-68
2022/01/21 17:00:39;;;;;;;0.70;0.70;;;0.90;99.90;;;;;;4976764;28;20204;-68
2022/01/21 17:03:06;;;;;;;0.88;0.88;;;0.90;99.90;;;;;;4976888;28;20226;-68
2022/01/21 17:05:36;;;;;;;0.80;0.80;;;0.90;99.90;;;;;;4976384;28;20199;-68
2022/01/21 17:08:08;;;;;;;0.70;0.70;;;0.90;99.90;;;;;;4943857;28;20235;-68
2022/01/21 17:10:38;;;;;;;0.77;0.77;;;0.90;99.90;;;;;;4976131;28;20195;-68
2022/01/21 17:13:09;;;;;;;0.65;0.65;;;0.90;99.90;;;;;;4976452;28;20305;-68
2022/01/21 17:15:37;;;;;;;0.88;0.88;;;0.90;99.90;;;;;;4975969;28;20210;-67
2022/01/21 17:18:06;;;;;;;0.82;0.82;;;0.90;99.90;;;;;;4976245;28;20238;-68
2022/01/21 17:20:35;;;;;;;1.33;0.70;;;0.90;99.90;;;;;;4959235;28;20207;-68
2022/01/21 17:23:03;;;;;;;1.00;1.00;;;0.90;99.90;;;;;;4976327;28;20293;-68
2022/01/21 17:25:30;;;;;;;0.80;0.80;;;0.90;99.90;;;;;;4977106;28;20694;-67
2022/01/21 17:27:58;;;;;;;0.85;0.85;;;0.90;99.90;;;;;;4977322;28;20203;-67
2022/01/21 17:30:28;;;;;;;0.70;0.70;;;0.90;99.90;;;;;;4976537;28;20582;-67
2022/01/21 17:32:57;;;;;;;0.60;0.60;;;0.90;99.90;;;;;;4976228;28;20611;-67
2022/01/21 17:35:25;;;;;;;0.82;0.82;;;0.90;99.90;;;;;;4976105;28;20207;-67
2022/01/21 17:37:55;;;;;;;0.98;0.98;;;0.90;99.90;;;;;;4975961;28;20223;-68
2022/01/21 17:40:26;;;;;;;0.70;0.70;;;0.90;99.90;;;;;;4975435;28;20241;-68
2022/01/21 17:42:53;;;;;;;0.80;0.80;;;0.90;99.90;;;;;;4958492;28;20298;-68
2022/01/21 17:45:23;;;;;;;0.70;0.70;;;0.90;99.90;;;;;;4975909;28;20188;-68
2022/01/21 17:47:54;;;;;;;0.60;0.60;;;0.80;99.90;;;;;;4958668;28;20239;-68
2022/01/21 17:50:22;;;;;;;0.70;0.70;;;0.90;99.90;;;;;;4975586;28;20693;-68
2022/01/21 17:52:50;;;;;;;0.80;0.80;;;0.80;99.90;;;;;;4975678;28;20290;-68
2022/01/21 17:55:16;;;;;;;0.90;0.90;;;0.90;99.90;;;;;;4975831;28;20188;-70
2022/01/21 17:57:44;;;;;;;1.00;1.00;;;0.80;99.90;;;;;;4975936;28;20251;-69
2022/01/21 18:00:14;;;;;;;0.80;0.80;;;0.80;99.90;;;;;;4975431;28;20200;-69
2022/01/21 18:02:41;;;;;;;0.90;0.90;;;0.80;99.90;;;;;;4975589;28;20359;-69
2022/01/21 18:05:10;;;;;;;1.08;1.08;;;0.80;99.90;;;;;;4975065;28;20188;-69
2022/01/21 18:07:37;;;;;;;1.85;1.35;;;0.80;99.90;;;;;;4975018;28;20195;-69
2022/01/21 18:10:10;;;;;;;1.17;1.17;;;0.80;99.90;;;;;;4975677;28;20294;-70
2022/01/21 18:12:37;;;;;;;2.78;1.27;;;0.70;99.90;;;;;;4975401;28;20199;-70
2022/01/21 18:15:06;;;;;;;1.55;1.45;;;0.80;99.90;;;;;;4975306;28;20227;-70
2022/01/21 18:17:32;;;;;;;1.40;1.25;;;0.80;99.90;;;;;;4975246;28;20210;-70
2022/01/21 18:19:59;;;;;;;1.77;1.67;;;0.70;99.90;;;;;;4974856;28;20199;-70
2022/01/21 18:22:28;;;;;;;3.20;1.67;;;0.80;99.90;;;;;;4974922;28;20233;-69
2022/01/21 18:24:55;;;;;;;1.50;1.40;;;0.70;99.90;;;;;;4974905;28;20326;-69
2022/01/21 18:27:22;;;;;;;1.42;1.33;;;0.70;99.90;;;;;;4974945;28;20238;-68
2022/01/21 18:29:49;;;;;;;1.58;1.20;;;0.70;99.90;;;;;;4974563;28;20736;-69
2022/01/21 18:32:18;;;;;;;2.15;1.55;;;0.70;99.90;;;;;;4974820;28;20314;-69
2022/01/21 18:34:46;;;;;;;1.88;1.45;;;0.70;99.90;;;;;;4974918;28;20334;-69
2022/01/21 18:37:14;;;;;;;1.75;1.63;;;0.70;99.90;;;;;;4974326;28;20254;-69